Time;durP1;ratioP1;P1;durP2;ratioP2;P2;SDS_P1;SDS_P2;PMS_P1;PMS_P2;Temp;Humidity;BMP_temperature;BMP_pressure;BME280_temperature;BME280_humidity;BME280_pressure;Samples;Min_cycle;Max_cycle;Signal;HPM_P1;HPM_P2
2022/01/15 00:01:33;;;;;;;26.10;14.90;;;5.20;99.90;4.90;101905.00;;;;5015566;27;87946;-70
2022/01/15 00:03:59;;;;;;;25.37;14.17;;;5.20;99.90;4.90;101905.00;;;;5014251;27;87214;-68
2022/01/15 00:06:25;;;;;;;28.77;14.83;;;5.10;99.90;4.90;101906.00;;;;5013688;27;117425;-68
2022/01/15 00:08:51;;;;;;;26.10;14.27;;;5.10;99.90;4.90;101899.00;;;;5014823;27;103047;-68
2022/01/15 00:11:16;;;;;;;25.37;13.23;;;5.10;99.90;4.90;101905.00;;;;5014054;27;112899;-69
2022/01/15 00:13:44;;;;;;;29.03;14.03;;;5.10;99.90;4.90;101908.00;;;;5015586;27;87869;-69
2022/01/15 00:16:14;;;;;;;27.03;14.10;;;5.10;99.90;4.90;101909.00;;;;5015057;27;89402;-69
2022/01/15 00:18:47;;;;;;;29.50;14.37;;;5.00;99.90;4.90;101908.00;;;;5002615;27;88148;-69
2022/01/15 00:21:14;;;;;;;23.03;14.10;;;5.10;99.90;4.90;101914.00;;;;4995997;27;87798;-69
2022/01/15 00:23:41;;;;;;;30.60;13.70;;;5.00;99.90;4.90;101920.00;;;;5014111;27;87788;-69
2022/01/15 00:26:07;;;;;;;23.67;13.50;;;5.00;99.90;4.90;101916.00;;;;5014818;27;87982;-68
2022/01/15 00:28:33;;;;;;;29.30;12.93;;;5.10;99.90;4.80;101912.00;;;;4996566;27;101439;-69
2022/01/15 00:30:58;;;;;;;28.00;12.87;;;5.10;99.90;4.80;101904.00;;;;5014846;27;87788;-68
2022/01/15 00:33:25;;;;;;;21.97;13.73;;;5.00;99.90;4.80;101905.00;;;;5015096;27;87762;-68
2022/01/15 00:35:52;;;;;;;21.30;11.93;;;5.00;99.90;4.80;101906.00;;;;5013756;27;90043;-69
2022/01/15 00:38:18;;;;;;;22.70;12.73;;;5.00;99.90;4.90;101899.00;;;;5013918;27;88899;-68
2022/01/15 00:40:44;;;;;;;25.23;12.93;;;5.10;99.90;4.90;101900.00;;;;5015493;27;87998;-67
2022/01/15 00:43:10;;;;;;;26.13;13.83;;;5.10;99.90;4.90;101903.00;;;;5013754;27;108131;-68
2022/01/15 00:45:35;;;;;;;27.00;15.47;;;5.10;99.90;4.90;101903.00;;;;4992695;28;87941;-68
2022/01/15 00:48:02;;;;;;;29.37;13.33;;;5.10;99.90;4.90;101899.00;;;;4994335;28;92546;-68
2022/01/15 00:50:28;;;;;;;25.97;12.93;;;5.10;99.90;4.90;101895.00;;;;4994752;28;87677;-67
2022/01/15 00:52:53;;;;;;;27.93;14.13;;;5.10;99.90;4.90;101908.00;;;;4994027;28;108319;-67
2022/01/15 00:55:20;;;;;;;33.30;13.57;;;5.00;99.90;4.90;101908.00;;;;4995268;27;88237;-69
2022/01/15 00:57:46;;;;;;;28.40;13.63;;;5.10;99.90;4.90;101899.00;;;;5011327;27;117873;-68
2022/01/15 01:00:20;;;;;;;27.67;14.07;;;5.10;99.90;4.90;101897.00;;;;5014267;27;88809;-68
2022/01/15 01:02:46;;;;;;;31.37;13.93;;;5.00;99.90;4.80;101908.00;;;;5014411;27;87964;-69
2022/01/15 01:05:11;;;;;;;24.53;14.03;;;5.10;99.90;4.80;101904.00;;;;5012644;27;116699;-69
2022/01/15 01:07:37;;;;;;;23.03;14.23;;;5.00;99.90;4.80;101910.00;;;;5013728;27;117437;-68
2022/01/15 01:10:24;;;;;;;26.77;13.67;;;5.40;99.90;4.80;101908.00;;;;4991590;28;92609;-69
2022/01/15 01:23:21;;;;;;;24.57;13.10;;;5.00;99.90;4.90;101915.00;;;;5012336;27;89448;-69
2022/01/15 01:25:51;;;;;;;20.37;12.00;;;5.00;99.90;4.90;101910.00;;;;5013816;27;89211;-67
2022/01/15 01:31:04;;;;;;;30.07;13.40;;;5.10;99.90;4.90;101910.00;;;;5011342;27;87815;-68
2022/01/15 01:33:47;;;;;;;26.60;12.17;;;5.00;99.90;4.90;101906.00;;;;5014637;27;87658;-68
2022/01/15 01:38:57;;;;;;;23.30;11.80;;;5.00;99.90;4.90;101903.00;;;;4996796;28;88131;-70
2022/01/15 01:41:24;;;;;;;22.43;12.23;;;5.10;99.90;4.90;101908.00;;;;4997642;27;87650;-68
2022/01/15 01:44:01;;;;;;;24.90;12.57;;;5.00;99.90;4.90;101898.00;;;;4998449;28;87316;-68
2022/01/15 01:48:55;;;;;;;23.20;11.03;;;5.10;99.90;4.90;101888.00;;;;5007980;27;102995;-69
2022/01/15 01:51:33;;;;;;;29.07;11.90;;;5.10;99.90;4.90;101898.00;;;;5015056;27;89066;-68
2022/01/15 01:54:08;;;;;;;21.50;12.50;;;5.10;99.90;4.90;101913.00;;;;4999317;27;88102;-70
2022/01/15 01:56:35;;;;;;;18.97;11.90;;;5.00;99.90;4.90;101903.00;;;;5016220;27;88962;-70
2022/01/15 01:59:02;;;;;;;21.60;11.73;;;5.00;99.90;4.90;101908.00;;;;5017647;27;88080;-68
2022/01/15 02:01:28;;;;;;;23.73;12.03;;;5.00;99.90;4.90;101906.00;;;;5016550;27;88983;-69
2022/01/15 02:03:54;;;;;;;21.93;11.97;;;5.00;99.90;4.90;101904.00;;;;5014337;27;108881;-68
2022/01/15 02:06:20;;;;;;;24.13;11.50;;;5.10;99.90;4.90;101901.00;;;;5015691;27;117338;-68
2022/01/15 02:08:48;;;;;;;20.87;11.40;;;5.10;99.90;4.90;101901.00;;;;5017404;27;88743;-69
2022/01/15 02:11:15;;;;;;;23.07;11.43;;;5.10;99.90;4.90;101897.00;;;;5017135;27;88261;-68
2022/01/15 02:13:44;;;;;;;24.27;12.13;;;5.10;99.90;4.90;101893.00;;;;5017110;27;87669;-68
2022/01/15 02:16:11;;;;;;;29.10;12.27;;;5.10;99.90;4.90;101903.00;;;;5009828;27;89944;-70
2022/01/15 02:18:38;;;;;;;21.37;12.57;;;5.10;99.90;4.90;101889.00;;;;5017492;27;89428;-70
2022/01/15 02:23:34;;;;;;;17.80;10.77;;;5.10;99.90;4.80;101880.00;;;;5016298;27;87910;-70
2022/01/15 02:26:14;;;;;;;23.97;11.57;;;5.00;99.90;4.90;101897.00;;;;5016042;27;89095;-69
2022/01/15 02:28:43;;;;;;;21.77;12.17;;;5.00;99.90;4.90;101891.00;;;;5014623;27;90208;-70
2022/01/15 02:31:13;;;;;;;23.10;11.13;;;5.10;99.90;4.80;101888.00;;;;5016897;27;87630;-68
2022/01/15 02:33:42;;;;;;;21.00;11.93;;;5.00;99.90;4.90;101880.00;;;;5017321;27;86949;-68
2022/01/15 02:36:17;;;;;;;19.00;10.93;;;5.10;99.90;4.80;101888.00;;;;5013126;27;100502;-69
2022/01/15 02:38:45;;;;;;;16.03;10.07;;;5.00;99.90;4.90;101884.00;;;;4996588;28;105320;-69
2022/01/15 02:41:11;;;;;;;23.23;11.70;;;5.00;99.90;4.80;101885.00;;;;5010918;27;88721;-69
2022/01/15 02:43:37;;;;;;;23.30;12.23;;;5.00;99.90;4.80;101874.00;;;;5016482;27;90924;-69
2022/01/15 02:48:57;;;;;;;19.33;12.03;;;5.00;99.90;4.80;101878.00;;;;4973234;28;87807;-70
2022/01/15 02:51:29;;;;;;;22.10;10.73;;;5.00;99.90;4.80;101878.00;;;;4998034;27;87779;-70
2022/01/15 02:53:56;;;;;;;24.43;11.67;;;5.00;99.90;4.80;101882.00;;;;4996595;28;87772;-70
2022/01/15 02:56:27;;;;;;;15.47;9.80;;;5.00;99.90;4.80;101887.00;;;;4996039;27;89342;-70
2022/01/15 02:58:54;;;;;;;24.60;11.27;;;5.00;99.90;4.80;101881.00;;;;4997588;28;88606;-67
2022/01/15 03:01:20;;;;;;;18.40;10.57;;;5.00;99.90;4.80;101865.00;;;;5012408;27;87869;-68
2022/01/15 03:03:46;;;;;;;21.93;9.17;;;5.00;99.90;4.80;101876.00;;;;5015264;27;88324;-69
2022/01/15 03:06:17;;;;;;;15.73;10.17;;;5.00;99.90;4.80;101870.00;;;;5000032;27;116951;-68
2022/01/15 03:08:45;;;;;;;20.10;9.53;;;5.10;99.90;4.80;101870.00;;;;4995909;27;88619;-70
2022/01/15 03:11:12;;;;;;;19.47;10.43;;;5.00;99.90;4.80;101873.00;;;;4997317;28;87631;-69
2022/01/15 03:13:40;;;;;;;22.63;10.23;;;5.00;99.90;4.80;101864.00;;;;5011859;27;88056;-69
2022/01/15 03:16:10;;;;;;;25.03;9.73;;;5.00;99.90;4.80;101859.00;;;;5015782;27;88765;-67
2022/01/15 03:18:36;;;;;;;23.77;11.43;;;5.00;99.90;4.80;101881.00;;;;5017009;27;97752;-68
2022/01/15 03:21:02;;;;;;;17.67;9.47;;;5.00;99.90;4.80;101878.00;;;;5014490;27;110885;-68
2022/01/15 03:23:28;;;;;;;21.40;10.77;;;4.90;99.90;4.80;101881.00;;;;5017026;27;95117;-68
2022/01/15 03:25:53;;;;;;;18.83;10.30;;;5.00;99.90;4.80;101881.00;;;;5014803;27;118135;-68
2022/01/15 03:28:19;;;;;;;17.27;9.90;;;5.00;99.90;4.80;101878.00;;;;5014676;27;116587;-68
2022/01/15 03:30:45;;;;;;;18.47;10.30;;;5.00;99.90;4.80;101872.00;;;;5014384;27;113304;-67
2022/01/15 03:33:11;;;;;;;15.13;9.20;;;4.90;99.90;4.80;101874.00;;;;5015255;27;108944;-67
2022/01/15 03:35:39;;;;;;;19.60;10.43;;;5.00;99.90;4.80;101874.00;;;;5015733;27;93537;-68
2022/01/15 03:38:06;;;;;;;19.93;9.63;;;5.00;99.90;4.80;101870.00;;;;5015947;27;88509;-67
2022/01/15 03:40:34;;;;;;;16.93;10.10;;;5.00;99.90;4.70;101862.00;;;;4990813;28;93885;-67
2022/01/15 03:43:00;;;;;;;18.60;10.20;;;4.90;99.90;4.70;101859.00;;;;5011249;27;87767;-69
2022/01/15 03:45:26;;;;;;;21.87;9.93;;;4.90;99.90;4.70;101870.00;;;;4987840;28;87765;-69
2022/01/15 03:47:53;;;;;;;20.20;9.50;;;4.90;99.90;4.70;101863.00;;;;4996469;28;88534;-68
2022/01/15 03:50:19;;;;;;;10.77;7.30;;;4.90;99.90;4.70;101871.00;;;;4978291;28;97399;-68
2022/01/15 03:52:46;;;;;;;10.37;7.00;;;4.90;99.90;4.70;101869.00;;;;4994861;28;107803;-69
2022/01/15 03:55:14;;;;;;;16.07;8.17;;;4.90;99.90;4.70;101871.00;;;;4995373;28;89419;-67
2022/01/15 03:57:40;;;;;;;11.87;6.83;;;4.90;99.90;4.70;101871.00;;;;4994156;27;99439;-67
2022/01/15 04:00:13;;;;;;;16.00;7.23;;;4.90;99.90;4.70;101864.00;;;;4995910;27;87663;-67
2022/01/15 04:02:41;;;;;;;9.27;6.40;;;4.90;99.90;4.70;101870.00;;;;4996072;28;87742;-67
2022/01/15 04:05:09;;;;;;;13.60;6.83;;;4.90;99.90;4.70;101879.00;;;;4996620;27;87964;-68
2022/01/15 04:07:35;;;;;;;15.17;6.87;;;4.80;99.90;4.60;101876.00;;;;4995735;27;87901;-67
2022/01/15 04:10:00;;;;;;;9.00;5.13;;;4.80;99.90;4.60;101875.00;;;;5012992;27;111156;-69
2022/01/15 04:12:26;;;;;;;15.67;6.07;;;4.80;99.90;4.60;101865.00;;;;5012587;27;95925;-68
2022/01/15 04:14:52;;;;;;;6.60;4.73;;;4.80;99.90;4.50;101869.00;;;;4995946;27;117663;-68
2022/01/15 04:17:18;;;;;;;14.87;5.47;;;4.80;99.90;4.60;101861.00;;;;5014797;27;117733;-67
2022/01/15 04:19:44;;;;;;;15.83;5.10;;;4.80;99.90;4.50;101869.00;;;;5015158;27;88462;-68
2022/01/15 04:22:09;;;;;;;13.90;4.97;;;4.80;99.90;4.50;101865.00;;;;5016373;27;87754;-69
2022/01/15 04:24:35;;;;;;;11.23;5.40;;;4.70;99.90;4.50;101862.00;;;;5014827;27;116722;-68
2022/01/15 04:27:00;;;;;;;7.87;4.53;;;4.70;99.90;4.50;101859.00;;;;5014548;27;117964;-68
2022/01/15 04:29:26;;;;;;;8.93;5.40;;;4.70;99.90;4.50;101861.00;;;;5016086;27;87689;-68
2022/01/15 04:31:52;;;;;;;13.87;5.03;;;4.70;99.90;4.50;101853.00;;;;5015387;27;87639;-69
2022/01/15 04:34:21;;;;;;;16.33;5.07;;;4.60;99.90;4.40;101850.00;;;;5014691;27;112806;-68
2022/01/15 04:36:50;;;;;;;12.13;5.63;;;4.60;99.90;4.40;101843.00;;;;4990223;27;87301;-68
2022/01/15 04:39:16;;;;;;;10.13;4.63;;;4.60;99.90;4.40;101825.00;;;;4995852;28;88020;-69
2022/01/15 04:41:41;;;;;;;9.87;5.03;;;4.60;99.90;4.40;101851.00;;;;5006439;27;96810;-69
2022/01/15 04:44:08;;;;;;;17.33;5.40;;;4.60;99.90;4.40;101851.00;;;;5014155;27;114726;-68
2022/01/15 04:46:35;;;;;;;10.40;5.30;;;4.60;99.90;4.40;101848.00;;;;5014418;27;98728;-69
2022/01/15 04:49:01;;;;;;;14.20;4.97;;;4.60;99.90;4.40;101849.00;;;;4997195;27;87929;-69
2022/01/15 04:51:27;;;;;;;9.70;5.40;;;4.60;99.90;4.40;101853.00;;;;4997664;27;95049;-69
2022/01/15 04:53:53;;;;;;;9.57;5.10;;;4.60;99.90;4.40;101848.00;;;;4993938;28;118084;-69
2022/01/15 04:56:19;;;;;;;7.97;4.97;;;4.60;99.90;4.40;101849.00;;;;4989318;28;116795;-70
2022/01/15 04:58:44;;;;;;;9.27;5.07;;;4.60;99.90;4.50;101837.00;;;;4995173;27;87863;-70
2022/01/15 05:01:10;;;;;;;12.00;5.80;;;4.60;99.90;4.50;101823.00;;;;4995868;27;107863;-71
2022/01/15 05:03:36;;;;;;;11.67;5.27;;;4.70;99.90;4.50;101834.00;;;;4994892;27;118040;-69
2022/01/15 05:06:02;;;;;;;11.67;5.10;;;4.70;99.90;4.50;101827.00;;;;4995704;27;105939;-67
2022/01/15 05:08:28;;;;;;;10.63;5.50;;;4.70;99.90;4.40;101834.00;;;;5012149;27;109601;-67
2022/01/15 05:10:57;;;;;;;13.50;4.90;;;4.80;99.90;4.50;101834.00;;;;5015176;27;87721;-69
2022/01/15 05:13:28;;;;;;;15.87;5.60;;;4.60;99.90;4.50;101844.00;;;;5014535;27;88864;-70
2022/01/15 05:15:54;;;;;;;10.23;5.33;;;4.60;99.90;4.40;101847.00;;;;5015142;27;87679;-69
2022/01/15 05:18:19;;;;;;;10.03;5.83;;;4.60;99.90;4.40;101847.00;;;;5014049;27;98153;-68
2022/01/15 05:20:46;;;;;;;15.47;7.80;;;4.60;99.90;4.40;101853.00;;;;5014583;27;108507;-70
2022/01/15 05:23:12;;;;;;;11.63;7.10;;;4.60;99.90;4.40;101844.00;;;;5013231;27;90792;-69
2022/01/15 05:25:39;;;;;;;18.97;7.33;;;4.60;99.90;4.40;101847.00;;;;4984984;28;98499;-67
2022/01/15 05:28:06;;;;;;;16.40;6.60;;;4.60;99.90;4.40;101846.00;;;;4994913;28;89856;-71
2022/01/15 05:30:33;;;;;;;11.40;6.73;;;4.60;99.90;4.30;101838.00;;;;5004804;27;87843;-68
2022/01/15 05:32:59;;;;;;;23.67;7.37;;;4.60;99.90;4.30;101831.00;;;;5006938;27;88628;-69
2022/01/15 05:35:27;;;;;;;9.93;6.47;;;4.50;99.90;4.30;101847.00;;;;4994640;27;89276;-68
2022/01/15 05:37:54;;;;;;;14.10;6.77;;;4.50;99.90;4.30;101838.00;;;;4995664;27;87796;-70
2022/01/15 05:40:20;;;;;;;15.40;7.00;;;4.50;99.90;4.30;101848.00;;;;4994674;27;97338;-68
2022/01/15 05:42:46;;;;;;;14.33;6.60;;;4.50;99.90;4.30;101834.00;;;;5000399;27;118214;-68
2022/01/15 05:45:13;;;;;;;14.40;6.03;;;4.40;99.90;4.20;101843.00;;;;5014435;27;88198;-68
2022/01/15 05:47:39;;;;;;;17.57;7.37;;;4.40;99.90;4.20;101843.00;;;;5014267;27;97239;-68
2022/01/15 05:50:06;;;;;;;11.73;6.30;;;4.40;99.90;4.20;101848.00;;;;5013995;27;109192;-67
2022/01/15 05:52:32;;;;;;;13.83;5.70;;;4.40;99.90;4.10;101843.00;;;;5014117;27;103776;-69
2022/01/15 05:54:57;;;;;;;14.27;5.43;;;4.40;99.90;4.10;101852.00;;;;4991804;28;92088;-68
2022/01/15 05:57:23;;;;;;;9.20;6.33;;;4.30;99.90;4.00;101841.00;;;;4992571;28;111272;-67
2022/01/15 05:59:51;;;;;;;12.17;5.73;;;4.20;99.90;3.90;101849.00;;;;4976469;28;91019;-68
2022/01/15 06:02:18;;;;;;;8.70;4.90;;;4.20;99.90;3.90;101855.00;;;;4988791;28;88960;-70
2022/01/15 06:04:44;;;;;;;13.20;5.30;;;4.00;99.90;3.80;101856.00;;;;4993749;28;87981;-70
2022/01/15 06:07:10;;;;;;;10.77;4.97;;;4.10;99.90;3.80;101847.00;;;;5011638;27;110213;-69
2022/01/15 06:09:35;;;;;;;13.30;5.73;;;4.00;99.90;3.80;101860.00;;;;5013051;27;109420;-69
2022/01/15 06:12:01;;;;;;;10.90;5.87;;;4.10;99.90;3.80;101857.00;;;;5013437;27;118169;-67
2022/01/15 06:14:30;;;;;;;14.67;5.73;;;4.00;99.90;3.80;101860.00;;;;5013924;27;88103;-68
2022/01/15 06:16:55;;;;;;;15.27;4.87;;;4.00;99.90;3.80;101863.00;;;;4995699;27;87693;-69
2022/01/15 06:19:21;;;;;;;9.93;4.80;;;4.00;99.90;3.80;101857.00;;;;5008877;27;87980;-69
2022/01/15 06:21:47;;;;;;;7.63;4.33;;;4.00;99.90;3.80;101861.00;;;;4995256;28;117410;-70
2022/01/15 06:24:13;;;;;;;15.27;4.33;;;4.00;99.90;3.70;101869.00;;;;4997688;27;88960;-70
2022/01/15 06:26:38;;;;;;;7.67;4.40;;;4.00;99.90;3.70;101873.00;;;;5005040;27;87915;-69
2022/01/15 06:29:04;;;;;;;5.80;4.00;;;4.20;99.90;3.70;101863.00;;;;4992782;28;89770;-69
2022/01/15 06:31:31;;;;;;;10.97;3.50;;;3.90;99.90;3.70;101874.00;;;;5001288;27;116469;-67
2022/01/15 06:33:58;;;;;;;12.83;4.30;;;3.90;99.90;3.70;101860.00;;;;4997338;28;88099;-68
2022/01/15 06:36:23;;;;;;;5.27;3.33;;;4.00;99.90;3.70;101870.00;;;;4998136;27;91428;-68
2022/01/15 06:38:49;;;;;;;4.60;2.80;;;3.90;99.90;3.70;101880.00;;;;4999208;27;108290;-69
2022/01/15 06:41:15;;;;;;;10.07;3.43;;;3.90;99.90;3.70;101896.00;;;;5017005;27;94614;-70
2022/01/15 06:43:41;;;;;;;11.03;3.60;;;4.00;99.90;3.70;101892.00;;;;5014956;27;90061;-69
2022/01/15 06:46:07;;;;;;;8.60;3.63;;;4.00;99.90;3.70;101895.00;;;;5016997;27;88590;-68
2022/01/15 06:48:32;;;;;;;15.10;3.80;;;4.00;99.90;3.70;101882.00;;;;5016358;27;108760;-68
2022/01/15 06:50:58;;;;;;;14.77;3.47;;;3.90;99.90;3.70;101882.00;;;;4979029;28;101463;-68
2022/01/15 06:53:24;;;;;;;17.07;4.00;;;3.30;99.90;3.70;101885.00;;;;4997053;27;88038;-68
2022/01/15 06:55:52;;;;;;;5.60;2.83;;;3.90;99.90;3.70;101879.00;;;;5008588;27;109843;-66
2022/01/15 06:58:19;;;;;;;9.20;3.17;;;3.90;99.90;3.70;101873.00;;;;4998570;27;87731;-68
2022/01/15 07:00:45;;;;;;;10.93;3.77;;;3.80;99.90;3.70;101877.00;;;;5007018;27;88181;-69
2022/01/15 07:03:11;;;;;;;8.23;3.00;;;4.70;99.90;3.70;101884.00;;;;5013390;27;104026;-69
2022/01/15 07:05:36;;;;;;;10.47;3.63;;;3.80;99.90;3.60;101875.00;;;;5003014;27;93829;-69
2022/01/15 07:08:02;;;;;;;15.27;3.33;;;3.90;99.90;3.60;101880.00;;;;5013411;27;87905;-70
2022/01/15 07:10:28;;;;;;;10.30;4.00;;;3.80;99.90;3.60;101888.00;;;;5006130;27;90045;-69
2022/01/15 07:12:54;;;;;;;9.50;2.80;;;4.50;99.90;3.60;101896.00;;;;5012438;27;119312;-68
2022/01/15 07:15:21;;;;;;;10.17;4.03;;;3.70;99.90;3.60;101894.00;;;;5006072;27;88887;-68
2022/01/15 07:17:48;;;;;;;11.77;4.23;;;4.00;99.90;3.50;101888.00;;;;5013281;27;91040;-68
2022/01/15 07:20:17;;;;;;;13.50;2.93;;;3.80;99.90;3.50;101896.00;;;;4998666;27;89105;-70
2022/01/15 07:22:43;;;;;;;5.77;2.80;;;3.70;99.90;3.50;101902.00;;;;4979684;27;88318;-68
2022/01/15 07:25:10;;;;;;;14.60;4.40;;;3.70;99.90;3.50;101901.00;;;;5004150;27;110758;-69
2022/01/15 07:27:37;;;;;;;8.23;3.97;;;3.70;99.90;3.50;101895.00;;;;5003810;27;94675;-68
2022/01/15 07:30:06;;;;;;;11.57;3.53;;;3.70;99.90;3.50;101903.00;;;;5012040;27;88426;-68
2022/01/15 07:32:32;;;;;;;8.67;3.57;;;3.70;99.90;3.40;101897.00;;;;4982669;27;87796;-70
2022/01/15 07:34:58;;;;;;;8.13;3.53;;;3.70;99.90;3.40;101900.00;;;;4998816;27;88646;-69
2022/01/15 07:37:25;;;;;;;11.50;3.63;;;3.60;99.90;3.30;101896.00;;;;4987964;27;87873;-69
2022/01/15 07:39:50;;;;;;;11.70;4.30;;;3.50;99.90;3.20;101906.00;;;;4993753;27;98959;-68
2022/01/15 07:42:16;;;;;;;14.67;4.50;;;3.50;99.90;3.20;101911.00;;;;4993366;27;87922;-68
2022/01/15 07:44:42;;;;;;;7.10;2.80;;;3.50;99.90;3.10;101915.00;;;;5007641;27;87694;-69
2022/01/15 07:47:08;;;;;;;11.37;3.70;;;3.40;99.90;3.10;101902.00;;;;5006834;27;108710;-68
2022/01/15 07:49:34;;;;;;;9.27;4.53;;;3.40;99.90;3.10;101895.00;;;;5005609;27;88525;-68
2022/01/15 07:52:01;;;;;;;8.63;3.90;;;3.40;99.90;3.10;101882.00;;;;4985564;27;87966;-68
2022/01/15 07:54:26;;;;;;;9.17;4.27;;;3.60;99.90;3.10;101898.00;;;;5008885;27;94773;-68
2022/01/15 07:56:55;;;;;;;9.33;3.30;;;3.30;99.90;3.10;101902.00;;;;5001237;27;108211;-69
2022/01/15 07:59:22;;;;;;;9.10;3.70;;;3.40;99.90;3.10;101907.00;;;;5011025;27;89230;-68
2022/01/15 08:01:47;;;;;;;10.03;4.23;;;3.80;99.90;3.20;101911.00;;;;5007973;27;104505;-67
2022/01/15 08:04:13;;;;;;;9.63;3.93;;;4.30;99.90;3.20;101919.00;;;;5013579;27;87747;-68
2022/01/15 08:06:41;;;;;;;17.23;6.30;;;3.40;99.90;3.30;101920.00;;;;4992748;27;98057;-68
2022/01/15 08:09:07;;;;;;;12.67;5.03;;;4.20;99.90;3.30;101915.00;;;;5012180;27;88741;-70
2022/01/15 08:11:32;;;;;;;17.67;6.07;;;3.60;99.90;3.40;101919.00;;;;4998377;27;88144;-68
2022/01/15 08:13:58;;;;;;;15.53;5.17;;;3.50;99.90;3.40;101930.00;;;;5004755;27;110637;-67
2022/01/15 08:16:24;;;;;;;13.47;5.60;;;3.60;99.90;3.40;101928.00;;;;5005132;27;107675;-69
2022/01/15 08:18:49;;;;;;;11.93;4.50;;;3.60;99.90;3.40;101937.00;;;;5010832;27;118602;-70
2022/01/15 08:21:15;;;;;;;16.47;5.30;;;3.70;99.90;3.40;101941.00;;;;5000402;27;88547;-68
2022/01/15 08:23:41;;;;;;;7.30;3.67;;;3.60;99.90;3.40;101936.00;;;;4989818;27;88614;-68
2022/01/15 08:26:07;;;;;;;12.07;4.83;;;3.60;99.90;3.30;101928.00;;;;5009729;27;87999;-68
2022/01/15 08:28:32;;;;;;;20.53;4.87;;;3.60;99.90;3.30;101937.00;;;;5009439;27;118656;-68
2022/01/15 08:30:58;;;;;;;11.37;4.67;;;3.50;99.90;3.30;101943.00;;;;5011501;27;117940;-69
2022/01/15 08:33:24;;;;;;;11.43;3.80;;;3.50;99.90;3.30;101951.00;;;;5004528;27;106535;-68
2022/01/15 08:35:50;;;;;;;7.70;3.57;;;3.70;99.90;3.30;101945.00;;;;5005648;27;87936;-68
2022/01/15 08:38:16;;;;;;;14.07;4.23;;;3.50;99.90;3.30;101948.00;;;;5011100;27;118630;-69
2022/01/15 08:40:42;;;;;;;14.80;4.50;;;3.60;99.90;3.30;101937.00;;;;5011891;27;97532;-67
2022/01/15 08:43:08;;;;;;;9.30;4.40;;;3.50;99.90;3.20;101949.00;;;;5010591;27;87831;-69
2022/01/15 08:45:36;;;;;;;19.33;4.97;;;3.90;99.90;3.20;101945.00;;;;5004032;27;87803;-68
2022/01/15 08:48:02;;;;;;;9.73;4.67;;;3.50;99.90;3.20;101952.00;;;;5011413;27;90028;-68
2022/01/15 08:50:28;;;;;;;15.77;4.83;;;3.50;99.90;3.30;101949.00;;;;4981268;27;88164;-68
2022/01/15 08:52:54;;;;;;;14.43;4.70;;;3.50;99.90;3.30;101955.00;;;;5010505;27;109791;-69
2022/01/15 08:55:20;;;;;;;18.27;5.03;;;4.00;99.90;3.40;101954.00;;;;4999084;27;107176;-70
2022/01/15 08:57:46;;;;;;;7.97;3.87;;;3.60;99.90;3.40;101951.00;;;;5011082;27;88254;-68
2022/01/15 09:00:17;;;;;;;10.80;4.87;;;3.60;99.90;3.40;101952.00;;;;4998327;27;98338;-67
2022/01/15 09:02:43;;;;;;;11.53;4.57;;;3.60;99.90;3.40;101957.00;;;;4989311;27;94416;-67
2022/01/15 09:05:09;;;;;;;10.90;3.87;;;3.70;99.90;3.50;101953.00;;;;5003280;27;87171;-69
2022/01/15 09:07:35;;;;;;;17.80;4.57;;;3.70;99.90;3.50;101963.00;;;;5005457;27;88442;-69
2022/01/15 09:10:03;;;;;;;17.47;5.57;;;4.00;99.90;3.50;101959.00;;;;4984331;28;88316;-68
2022/01/15 09:12:28;;;;;;;13.93;3.90;;;3.70;99.90;3.50;101963.00;;;;5001184;27;91976;-70
2022/01/15 09:14:59;;;;;;;14.03;4.50;;;4.30;99.90;3.60;101964.00;;;;5000619;27;108606;-68
2022/01/15 09:17:26;;;;;;;12.47;4.33;;;4.10;99.90;3.60;101971.00;;;;4996808;27;88407;-67
2022/01/15 09:19:53;;;;;;;10.03;3.97;;;3.80;99.90;3.80;101962.00;;;;5006133;27;90967;-67
2022/01/15 09:22:19;;;;;;;16.37;3.87;;;3.90;99.90;4.10;101973.00;;;;5002642;27;87842;-68
2022/01/15 09:24:46;;;;;;;9.83;4.27;;;4.10;99.90;4.40;101974.00;;;;5006752;27;87748;-68
2022/01/15 09:30:13;;;;;;;6.27;3.23;;;4.80;99.90;4.90;101959.00;;;;4996688;27;87506;-69
2022/01/15 09:32:40;;;;;;;12.50;4.13;;;5.00;99.90;5.10;101973.00;;;;5005765;27;88005;-70
2022/01/15 09:35:07;;;;;;;13.17;4.00;;;5.20;99.90;5.30;101967.00;;;;5001857;27;88034;-67
2022/01/15 09:37:33;;;;;;;10.50;4.20;;;5.40;99.90;5.40;101976.00;;;;4977680;27;98273;-69
2022/01/15 09:39:59;;;;;;;8.20;3.43;;;5.50;99.90;5.50;101971.00;;;;5010960;27;89762;-68
2022/01/15 09:42:25;;;;;;;14.03;5.07;;;5.60;99.90;5.40;101967.00;;;;5003700;27;87912;-67
2022/01/15 09:44:53;;;;;;;12.53;4.27;;;5.60;99.90;5.40;101968.00;;;;5005587;27;88044;-67
2022/01/15 09:47:23;;;;;;;11.50;3.90;;;6.00;99.90;5.30;101966.00;;;;4998832;27;88238;-69
2022/01/15 09:49:52;;;;;;;13.90;4.07;;;5.50;99.90;5.20;101957.00;;;;5002461;27;87872;-69
2022/01/15 09:52:18;;;;;;;13.67;5.27;;;5.40;99.90;5.20;101965.00;;;;5004146;27;87736;-69
2022/01/15 09:54:45;;;;;;;8.23;4.07;;;5.40;99.90;5.10;101971.00;;;;5008546;27;87147;-68
2022/01/15 09:57:10;;;;;;;14.63;4.37;;;5.30;99.90;5.10;101960.00;;;;4984251;27;88291;-69
2022/01/15 09:59:36;;;;;;;8.50;4.03;;;5.30;99.90;5.20;101951.00;;;;5008849;27;117579;-68
2022/01/15 10:02:04;;;;;;;9.73;3.40;;;5.40;99.90;5.20;101956.00;;;;5004717;27;88788;-69
2022/01/15 10:04:32;;;;;;;14.97;4.63;;;5.40;99.90;5.20;101962.00;;;;5011592;27;87921;-69
2022/01/15 10:07:20;;;;;;;8.87;3.50;;;5.40;99.90;5.50;101958.00;;;;4999473;27;88979;-70
2022/01/15 10:09:48;;;;;;;6.13;3.73;;;5.60;99.90;5.80;101954.00;;;;4990731;28;88031;-70
2022/01/15 10:12:28;;;;;;;11.53;3.37;;;6.00;99.90;6.00;101957.00;;;;5009382;27;88300;-69
2022/01/15 10:15:00;;;;;;;4.37;2.77;;;6.10;99.90;6.30;101960.00;;;;4991501;27;87821;-69
2022/01/15 10:17:33;;;;;;;14.50;3.80;;;6.30;99.90;6.60;101953.00;;;;5012501;27;89597;-69
2022/01/15 10:20:06;;;;;;;12.97;4.23;;;6.50;99.90;6.80;101954.00;;;;4992381;27;88541;-69
2022/01/15 10:22:32;;;;;;;16.67;4.87;;;6.80;99.90;6.70;101948.00;;;;5007036;27;87711;-68
2022/01/15 10:25:21;;;;;;;9.60;3.83;;;6.90;99.90;6.60;101954.00;;;;5007642;27;87823;-69
2022/01/15 10:27:54;;;;;;;8.33;3.33;;;6.80;99.90;6.50;101942.00;;;;5010590;27;88920;-69
2022/01/15 10:30:27;;;;;;;10.27;4.30;;;6.70;99.90;6.40;101958.00;;;;5011057;27;88776;-69
2022/01/15 10:33:05;;;;;;;13.03;4.67;;;6.60;99.90;6.30;101964.00;;;;5013915;27;87879;-69
2022/01/15 10:35:34;;;;;;;9.43;4.17;;;6.50;99.90;6.40;101954.00;;;;4992180;27;87831;-68
2022/01/15 10:38:08;;;;;;;6.67;3.20;;;6.50;99.90;6.30;101959.00;;;;4993597;27;104733;-69
2022/01/15 10:40:45;;;;;;;10.97;3.13;;;6.50;99.90;6.20;101954.00;;;;5005611;27;88700;-69
2022/01/15 10:43:15;;;;;;;7.70;3.40;;;6.40;99.90;6.10;101938.00;;;;5012543;27;89402;-68
2022/01/15 10:45:56;;;;;;;14.73;4.07;;;6.30;99.90;6.00;101948.00;;;;4986701;27;87118;-68
2022/01/15 10:48:33;;;;;;;7.43;2.63;;;6.30;99.90;5.90;101952.00;;;;4986092;28;94364;-69
2022/01/15 10:51:01;;;;;;;12.07;3.50;;;6.10;99.90;5.90;101951.00;;;;4980578;27;87854;-68
2022/01/15 10:53:38;;;;;;;10.27;4.40;;;6.10;99.90;5.80;101938.00;;;;5005534;27;88750;-68
2022/01/15 10:56:07;;;;;;;13.03;4.20;;;6.00;99.90;5.70;101931.00;;;;5001906;27;87816;-68
2022/01/15 10:58:34;;;;;;;11.97;4.87;;;5.90;99.90;5.60;101932.00;;;;5002872;27;88820;-68
2022/01/15 11:01:00;;;;;;;11.93;4.70;;;5.70;99.90;5.50;101922.00;;;;4991008;27;101667;-68
2022/01/15 11:03:40;;;;;;;11.30;4.00;;;5.70;99.90;5.40;101937.00;;;;4971907;27;109435;-68
2022/01/15 11:06:06;;;;;;;7.33;3.63;;;5.60;99.90;5.40;101945.00;;;;5003715;27;87727;-68
2022/01/15 11:08:38;;;;;;;11.27;3.80;;;5.70;99.90;5.50;101928.00;;;;5012911;27;103717;-67
2022/01/15 11:11:09;;;;;;;9.50;2.77;;;5.60;99.90;5.50;101930.00;;;;5013478;27;88937;-68
2022/01/15 11:13:41;;;;;;;15.23;4.67;;;5.20;99.90;5.50;101918.00;;;;5013599;27;87800;-68
2022/01/15 11:16:18;;;;;;;8.70;3.90;;;5.70;99.90;5.50;101917.00;;;;5004022;27;87871;-68
2022/01/15 11:18:48;;;;;;;9.73;3.17;;;5.60;99.90;5.50;101910.00;;;;5012434;27;89680;-68
2022/01/15 11:21:18;;;;;;;11.43;4.43;;;5.60;99.90;5.50;101908.00;;;;5006659;27;88692;-67